Pagrindinis puslapis
METAR-TAF:

METAR-TAF

Oro uostai :

Tukumanas, Argentina

platuma: 26-51S, ilguma: 065-06W, Aukštis: 440 m

Dabartinis oras

Ataskaita buvo paskelbta 19 minutes, ne 16:00 UTC
Vėjas 6 kt iš Pietų
Temperatūra 28°C
Drėgmė 37%
Slėgis 1002 hPa
Matomumas: 8000 m

METAR: SANT 151600Z 18006KT 8000 NSC 28/12 Q1002

Laikas: 13:19 (16:19 UTC)

Prognozė

Ataskaita buvo paskelbta 5 valandos ir 19 minutes, ne 11:00 UTC
Prognozė galioja nuo 15 metu 12 UTC su 16 metu 12 UTC
Vėjas 10 kt iš Šiaurės
Matomumas: 7000 m
dūmai
Tapsmas
nuo 15 metu 13 UTC su 15 metu 16 UTC
Vėjas 5 kt iš Pietvakarių
Matomumas: 5000 m
dūmai
Tapsmas
nuo 16 metu 00 UTC su 16 metu 03 UTC
Vėjas 5 kt iš Šiaurės/Šiaurės Vakarų
Matomumas: 6000 m
dūmai
Tapsmas
nuo 16 metu 10 UTC su 16 metu 10 UTC
Vėjas 15 kt iš Pietų
Matomumas: 7000 m
Su prošvaistėmis ne aukštis 3000 ft
Dulkes pustymas

TAF: SANT 151100Z 1512/1612 36010KT 7000 FU NSC TX35/1518Z TN14/1610Z BECMG 1513/1516 23005KT 5000 FU NSC BECMG 1600/1603 34005KT 6000 FU BECMG 1610/1610 18015KT 7000 BLDU BKN030

Orai ataskaitas ir orų prognozės (METAR, TAF).

turimą stotys yra geltonos ir raudonos taškus žemėlapyje.

Perkelti pele per norėdami pamatyti stoties vardą.

Tada spustelėkite, norėdami matyti oro stebėjimo ir prognozės.

Norėdami pakeisti žemėlapį: spustelėkite ant žalios mygtukų su juodo kryžiaus žemyn,; žalią mygtuką su brūkšneliu, jei norite nutolinti; arba žalių rodyklių gretimoms žemėlapius.


METAR-TAF: